sensor_id;sensor_type;location;lat;lon;timestamp;temperature;humidity
65692;DHT22;52411;52.716;6.696;2023-06-24T00:01:36;17.00;99.90
65692;DHT22;52411;52.716;6.696;2023-06-24T00:04:04;17.00;99.90
65692;DHT22;52411;52.716;6.696;2023-06-24T00:06:29;17.00;99.90
65692;DHT22;52411;52.716;6.696;2023-06-24T00:08:55;16.90;99.90
65692;DHT22;52411;52.716;6.696;2023-06-24T00:11:27;16.90;99.90
65692;DHT22;52411;52.716;6.696;2023-06-24T00:13:53;16.80;99.90
65692;DHT22;52411;52.716;6.696;2023-06-24T00:16:18;16.70;99.90
65692;DHT22;52411;52.716;6.696;2023-06-24T00:18:55;16.60;99.90
65692;DHT22;52411;52.716;6.696;2023-06-24T00:21:26;16.50;99.90
65692;DHT22;52411;52.716;6.696;2023-06-24T00:23:59;16.50;99.90
65692;DHT22;52411;52.716;6.696;2023-06-24T00:26:27;16.40;99.90
65692;DHT22;52411;52.716;6.696;2023-06-24T00:28:52;16.40;99.90
65692;DHT22;52411;52.716;6.696;2023-06-24T00:31:19;16.40;99.90
65692;DHT22;52411;52.716;6.696;2023-06-24T00:33:46;16.40;99.90
65692;DHT22;52411;52.716;6.696;2023-06-24T00:36:11;16.40;99.90
65692;DHT22;52411;52.716;6.696;2023-06-24T00:38:40;16.20;99.90
65692;DHT22;52411;52.716;6.696;2023-06-24T00:41:06;16.10;99.90
65692;DHT22;52411;52.716;6.696;2023-06-24T00:43:32;16.00;99.90
65692;DHT22;52411;52.716;6.696;2023-06-24T00:45:59;15.90;99.90
65692;DHT22;52411;52.716;6.696;2023-06-24T00:48:24;16.00;99.90
65692;DHT22;52411;52.716;6.696;2023-06-24T00:50:50;16.00;99.90
65692;DHT22;52411;52.716;6.696;2023-06-24T00:53:17;16.10;99.90
65692;DHT22;52411;52.716;6.696;2023-06-24T00:55:44;16.20;99.90
65692;DHT22;52411;52.716;6.696;2023-06-24T00:58:11;16.20;99.90
65692;DHT22;52411;52.716;6.696;2023-06-24T01:00:42;16.20;99.90
65692;DHT22;52411;52.716;6.696;2023-06-24T01:03:10;16.10;99.90
65692;DHT22;52411;52.716;6.696;2023-06-24T01:05:37;16.10;99.90
65692;DHT22;52411;52.716;6.696;2023-06-24T01:08:03;15.90;99.90
65692;DHT22;52411;52.716;6.696;2023-06-24T01:10:28;15.90;99.90
65692;DHT22;52411;52.716;6.696;2023-06-24T01:12:54;15.90;99.90
65692;DHT22;52411;52.716;6.696;2023-06-24T01:15:20;15.80;99.90
65692;DHT22;52411;52.716;6.696;2023-06-24T01:18:13;15.80;99.90
65692;DHT22;52411;52.716;6.696;2023-06-24T01:20:55;15.80;99.90
65692;DHT22;52411;52.716;6.696;2023-06-24T01:23:51;15.80;99.90
65692;DHT22;52411;52.716;6.696;2023-06-24T01:34:42;15.60;99.90
65692;DHT22;52411;52.716;6.696;2023-06-24T01:39:50;15.60;99.90
65692;DHT22;52411;52.716;6.696;2023-06-24T01:42:19;15.60;99.90
65692;DHT22;52411;52.716;6.696;2023-06-24T01:44:48;15.60;99.90
65692;DHT22;52411;52.716;6.696;2023-06-24T01:47:25;15.50;99.90
65692;DHT22;52411;52.716;6.696;2023-06-24T01:49:53;15.50;99.90
65692;DHT22;52411;52.716;6.696;2023-06-24T01:52:22;15.40;99.90
65692;DHT22;52411;52.716;6.696;2023-06-24T01:54:50;15.40;99.90
65692;DHT22;52411;52.716;6.696;2023-06-24T01:57:18;15.20;99.90
65692;DHT22;52411;52.716;6.696;2023-06-24T01:59:45;15.20;99.90
65692;DHT22;52411;52.716;6.696;2023-06-24T02:02:12;15.20;99.90
65692;DHT22;52411;52.716;6.696;2023-06-24T02:04:39;15.30;99.90
65692;DHT22;52411;52.716;6.696;2023-06-24T02:07:05;15.20;99.90
65692;DHT22;52411;52.716;6.696;2023-06-24T02:09:33;15.20;99.90
65692;DHT22;52411;52.716;6.696;2023-06-24T02:12:00;15.20;99.90
65692;DHT22;52411;52.716;6.696;2023-06-24T02:14:27;15.20;99.90
65692;DHT22;52411;52.716;6.696;2023-06-24T02:16:56;15.10;99.90
65692;DHT22;52411;52.716;6.696;2023-06-24T02:19:29;15.00;99.90
65692;DHT22;52411;52.716;6.696;2023-06-24T02:21:58;15.00;99.90
65692;DHT22;52411;52.716;6.696;2023-06-24T02:24:26;14.90;99.90
65692;DHT22;52411;52.716;6.696;2023-06-24T02:26:53;14.80;99.90
65692;DHT22;52411;52.716;6.696;2023-06-24T02:29:20;14.80;99.90
65692;DHT22;52411;52.716;6.696;2023-06-24T02:31:47;14.90;99.90
65692;DHT22;52411;52.716;6.696;2023-06-24T02:34:12;14.80;99.90
65692;DHT22;52411;52.716;6.696;2023-06-24T02:36:38;14.80;99.90
65692;DHT22;52411;52.716;6.696;2023-06-24T02:39:04;14.80;99.90
65692;DHT22;52411;52.716;6.696;2023-06-24T02:41:30;14.70;99.90
65692;DHT22;52411;52.716;6.696;2023-06-24T02:43:55;14.70;99.90
65692;DHT22;52411;52.716;6.696;2023-06-24T02:46:22;14.70;99.90
65692;DHT22;52411;52.716;6.696;2023-06-24T02:48:48;14.70;99.90
65692;DHT22;52411;52.716;6.696;2023-06-24T02:51:15;14.70;99.90
65692;DHT22;52411;52.716;6.696;2023-06-24T02:53:41;14.70;99.90
65692;DHT22;52411;52.716;6.696;2023-06-24T02:56:08;14.70;99.90
65692;DHT22;52411;52.716;6.696;2023-06-24T02:58:36;14.70;99.90
65692;DHT22;52411;52.716;6.696;2023-06-24T03:01:03;14.70;99.90
65692;DHT22;52411;52.716;6.696;2023-06-24T03:03:29;14.60;99.90
65692;DHT22;52411;52.716;6.696;2023-06-24T03:05:55;14.50;99.90
65692;DHT22;52411;52.716;6.696;2023-06-24T03:08:24;14.50;99.90
65692;DHT22;52411;52.716;6.696;2023-06-24T03:10:55;14.50;99.90
65692;DHT22;52411;52.716;6.696;2023-06-24T03:13:21;14.50;99.90
65692;DHT22;52411;52.716;6.696;2023-06-24T03:15:47;14.50;99.90
65692;DHT22;52411;52.716;6.696;2023-06-24T03:18:13;14.50;99.90
65692;DHT22;52411;52.716;6.696;2023-06-24T03:20:38;14.50;99.90
65692;DHT22;52411;52.716;6.696;2023-06-24T03:23:07;14.60;99.90
65692;DHT22;52411;52.716;6.696;2023-06-24T03:25:33;14.60;99.90
65692;DHT22;52411;52.716;6.696;2023-06-24T03:27:59;14.50;99.90
65692;DHT22;52411;52.716;6.696;2023-06-24T03:30:33;14.50;99.90
65692;DHT22;52411;52.716;6.696;2023-06-24T03:32:58;14.40;99.90
65692;DHT22;52411;52.716;6.696;2023-06-24T03:35:24;14.40;99.90
65692;DHT22;52411;52.716;6.696;2023-06-24T03:37:50;14.40;99.90
65692;DHT22;52411;52.716;6.696;2023-06-24T03:40:17;14.40;99.90
65692;DHT22;52411;52.716;6.696;2023-06-24T03:42:42;14.40;99.90
65692;DHT22;52411;52.716;6.696;2023-06-24T03:45:08;14.40;99.90
65692;DHT22;52411;52.716;6.696;2023-06-24T03:47:34;14.40;99.90
65692;DHT22;52411;52.716;6.696;2023-06-24T03:50:00;14.40;99.90
65692;DHT22;52411;52.716;6.696;2023-06-24T03:52:25;14.40;99.90
65692;DHT22;52411;52.716;6.696;2023-06-24T03:54:51;14.50;99.90
65692;DHT22;52411;52.716;6.696;2023-06-24T03:57:17;14.50;99.90
65692;DHT22;52411;52.716;6.696;2023-06-24T03:59:43;14.50;99.90
65692;DHT22;52411;52.716;6.696;2023-06-24T04:02:09;14.60;99.90
65692;DHT22;52411;52.716;6.696;2023-06-24T04:04:35;14.60;99.90
65692;DHT22;52411;52.716;6.696;2023-06-24T04:07:01;14.70;99.90
65692;DHT22;52411;52.716;6.696;2023-06-24T04:09:28;14.70;99.90
65692;DHT22;52411;52.716;6.696;2023-06-24T04:11:54;14.80;99.90
65692;DHT22;52411;52.716;6.696;2023-06-24T04:14:20;14.80;99.90
65692;DHT22;52411;52.716;6.696;2023-06-24T04:16:45;14.90;99.90
65692;DHT22;52411;52.716;6.696;2023-06-24T04:19:11;15.00;99.90
65692;DHT22;52411;52.716;6.696;2023-06-24T04:21:37;15.10;99.90
65692;DHT22;52411;52.716;6.696;2023-06-24T04:24:03;15.10;99.90
65692;DHT22;52411;52.716;6.696;2023-06-24T04:26:29;15.10;99.90
65692;DHT22;52411;52.716;6.696;2023-06-24T04:28:54;15.30;99.90
65692;DHT22;52411;52.716;6.696;2023-06-24T04:31:20;15.40;99.90
65692;DHT22;52411;52.716;6.696;2023-06-24T04:33:45;15.50;99.90
65692;DHT22;52411;52.716;6.696;2023-06-24T04:36:11;15.70;99.90
65692;DHT22;52411;52.716;6.696;2023-06-24T04:38:37;15.80;99.90
65692;DHT22;52411;52.716;6.696;2023-06-24T04:41:02;15.90;99.90
65692;DHT22;52411;52.716;6.696;2023-06-24T04:43:29;16.00;99.90
65692;DHT22;52411;52.716;6.696;2023-06-24T04:45:54;16.20;99.90
65692;DHT22;52411;52.716;6.696;2023-06-24T04:48:23;16.20;99.90
65692;DHT22;52411;52.716;6.696;2023-06-24T04:50:49;16.30;99.90
65692;DHT22;52411;52.716;6.696;2023-06-24T04:53:15;16.30;99.90
65692;DHT22;52411;52.716;6.696;2023-06-24T04:55:40;16.40;99.90
65692;DHT22;52411;52.716;6.696;2023-06-24T04:58:06;16.50;99.90
65692;DHT22;52411;52.716;6.696;2023-06-24T05:00:32;16.60;99.90
65692;DHT22;52411;52.716;6.696;2023-06-24T05:02:58;16.70;99.90
65692;DHT22;52411;52.716;6.696;2023-06-24T05:05:23;16.80;99.90
65692;DHT22;52411;52.716;6.696;2023-06-24T05:07:49;16.90;99.90
65692;DHT22;52411;52.716;6.696;2023-06-24T05:10:15;17.00;99.90
65692;DHT22;52411;52.716;6.696;2023-06-24T05:12:40;17.00;99.90
65692;DHT22;52411;52.716;6.696;2023-06-24T05:15:07;17.00;99.90
65692;DHT22;52411;52.716;6.696;2023-06-24T05:17:33;17.00;99.90
65692;DHT22;52411;52.716;6.696;2023-06-24T05:19:58;17.10;99.90
65692;DHT22;52411;52.716;6.696;2023-06-24T05:22:24;17.20;99.90
65692;DHT22;52411;52.716;6.696;2023-06-24T05:24:50;17.20;99.90
65692;DHT22;52411;52.716;6.696;2023-06-24T05:27:15;17.30;99.90
65692;DHT22;52411;52.716;6.696;2023-06-24T05:29:43;17.40;99.90
65692;DHT22;52411;52.716;6.696;2023-06-24T05:32:08;17.50;99.90
65692;DHT22;52411;52.716;6.696;2023-06-24T05:34:34;17.60;99.90
65692;DHT22;52411;52.716;6.696;2023-06-24T05:37:00;17.70;99.90
65692;DHT22;52411;52.716;6.696;2023-06-24T05:39:26;17.70;99.90
65692;DHT22;52411;52.716;6.696;2023-06-24T05:41:52;17.90;99.90
65692;DHT22;52411;52.716;6.696;2023-06-24T05:44:17;17.90;99.90
65692;DHT22;52411;52.716;6.696;2023-06-24T05:46:44;18.00;99.90
65692;DHT22;52411;52.716;6.696;2023-06-24T05:49:10;18.10;99.90
65692;DHT22;52411;52.716;6.696;2023-06-24T05:51:36;18.20;99.90
65692;DHT22;52411;52.716;6.696;2023-06-24T05:54:02;18.30;99.90
65692;DHT22;52411;52.716;6.696;2023-06-24T05:56:28;18.40;99.90
65692;DHT22;52411;52.716;6.696;2023-06-24T05:58:54;18.50;99.90
65692;DHT22;52411;52.716;6.696;2023-06-24T06:01:20;18.70;99.90
65692;DHT22;52411;52.716;6.696;2023-06-24T06:03:46;18.80;99.90
65692;DHT22;52411;52.716;6.696;2023-06-24T06:06:11;18.90;99.90
65692;DHT22;52411;52.716;6.696;2023-06-24T06:08:37;19.00;99.90
65692;DHT22;52411;52.716;6.696;2023-06-24T06:11:02;19.10;99.90
65692;DHT22;52411;52.716;6.696;2023-06-24T06:13:29;19.20;99.90
65692;DHT22;52411;52.716;6.696;2023-06-24T06:15:55;19.30;99.90
65692;DHT22;52411;52.716;6.696;2023-06-24T06:18:21;19.40;99.90
65692;DHT22;52411;52.716;6.696;2023-06-24T06:20:46;19.40;99.90
65692;DHT22;52411;52.716;6.696;2023-06-24T06:23:12;19.50;99.90
65692;DHT22;52411;52.716;6.696;2023-06-24T06:25:38;19.60;99.90
65692;DHT22;52411;52.716;6.696;2023-06-24T06:28:04;19.70;99.90
65692;DHT22;52411;52.716;6.696;2023-06-24T06:30:30;19.80;99.90
65692;DHT22;52411;52.716;6.696;2023-06-24T06:32:55;19.80;99.90
65692;DHT22;52411;52.716;6.696;2023-06-24T06:35:21;20.00;99.90
65692;DHT22;52411;52.716;6.696;2023-06-24T06:37:47;20.00;99.90
65692;DHT22;52411;52.716;6.696;2023-06-24T06:40:21;20.10;99.90
65692;DHT22;52411;52.716;6.696;2023-06-24T06:42:47;20.10;99.90
65692;DHT22;52411;52.716;6.696;2023-06-24T06:45:13;20.20;99.90
65692;DHT22;52411;52.716;6.696;2023-06-24T06:47:38;20.30;99.90
65692;DHT22;52411;52.716;6.696;2023-06-24T06:50:04;20.40;99.90
65692;DHT22;52411;52.716;6.696;2023-06-24T06:52:30;20.50;99.90
65692;DHT22;52411;52.716;6.696;2023-06-24T06:54:56;20.60;99.90
65692;DHT22;52411;52.716;6.696;2023-06-24T06:57:22;20.70;99.90
65692;DHT22;52411;52.716;6.696;2023-06-24T06:59:48;20.80;99.90
65692;DHT22;52411;52.716;6.696;2023-06-24T07:02:16;20.90;99.90
65692;DHT22;52411;52.716;6.696;2023-06-24T07:04:42;21.10;99.90
65692;DHT22;52411;52.716;6.696;2023-06-24T07:07:08;21.10;99.90
65692;DHT22;52411;52.716;6.696;2023-06-24T07:09:34;21.30;99.90
65692;DHT22;52411;52.716;6.696;2023-06-24T07:11:59;21.40;99.90
65692;DHT22;52411;52.716;6.696;2023-06-24T07:14:25;21.50;99.90
65692;DHT22;52411;52.716;6.696;2023-06-24T07:16:51;21.60;99.90
65692;DHT22;52411;52.716;6.696;2023-06-24T07:19:16;21.70;99.90
65692;DHT22;52411;52.716;6.696;2023-06-24T07:21:42;21.80;99.90
65692;DHT22;52411;52.716;6.696;2023-06-24T07:24:08;21.90;99.90
65692;DHT22;52411;52.716;6.696;2023-06-24T07:26:33;22.00;99.90
65692;DHT22;52411;52.716;6.696;2023-06-24T07:28:59;22.10;99.90
65692;DHT22;52411;52.716;6.696;2023-06-24T07:31:25;22.20;99.90
65692;DHT22;52411;52.716;6.696;2023-06-24T07:33:51;22.20;99.90
65692;DHT22;52411;52.716;6.696;2023-06-24T07:36:16;22.30;99.90
65692;DHT22;52411;52.716;6.696;2023-06-24T07:38:42;22.30;99.90
65692;DHT22;52411;52.716;6.696;2023-06-24T07:41:08;22.40;99.90
65692;DHT22;52411;52.716;6.696;2023-06-24T07:43:33;22.50;99.90
65692;DHT22;52411;52.716;6.696;2023-06-24T07:45:59;22.60;99.90
65692;DHT22;52411;52.716;6.696;2023-06-24T07:48:25;22.60;99.90
65692;DHT22;52411;52.716;6.696;2023-06-24T07:50:50;22.70;99.90
65692;DHT22;52411;52.716;6.696;2023-06-24T07:53:16;22.80;99.90
65692;DHT22;52411;52.716;6.696;2023-06-24T07:55:41;22.90;99.90
65692;DHT22;52411;52.716;6.696;2023-06-24T07:58:07;22.90;99.90
65692;DHT22;52411;52.716;6.696;2023-06-24T08:00:33;23.00;99.90
65692;DHT22;52411;52.716;6.696;2023-06-24T08:02:59;23.20;99.90
65692;DHT22;52411;52.716;6.696;2023-06-24T08:05:25;23.30;99.90
65692;DHT22;52411;52.716;6.696;2023-06-24T08:07:51;23.40;99.90
65692;DHT22;52411;52.716;6.696;2023-06-24T08:10:17;23.40;99.90
65692;DHT22;52411;52.716;6.696;2023-06-24T08:12:43;23.40;99.90
65692;DHT22;52411;52.716;6.696;2023-06-24T08:15:09;23.50;99.90
65692;DHT22;52411;52.716;6.696;2023-06-24T08:17:35;23.60;99.90
65692;DHT22;52411;52.716;6.696;2023-06-24T08:20:04;23.70;99.90
65692;DHT22;52411;52.716;6.696;2023-06-24T08:22:30;23.80;99.90
65692;DHT22;52411;52.716;6.696;2023-06-24T08:24:56;23.70;99.90
65692;DHT22;52411;52.716;6.696;2023-06-24T08:27:21;23.80;99.90
65692;DHT22;52411;52.716;6.696;2023-06-24T08:29:48;23.90;99.90
65692;DHT22;52411;52.716;6.696;2023-06-24T08:32:13;23.90;99.90
65692;DHT22;52411;52.716;6.696;2023-06-24T08:34:39;23.90;99.90
65692;DHT22;52411;52.716;6.696;2023-06-24T08:37:05;23.90;99.90
65692;DHT22;52411;52.716;6.696;2023-06-24T08:39:30;23.90;99.90
65692;DHT22;52411;52.716;6.696;2023-06-24T08:41:56;23.90;99.90
65692;DHT22;52411;52.716;6.696;2023-06-24T08:44:21;23.90;99.90
65692;DHT22;52411;52.716;6.696;2023-06-24T08:46:47;24.00;99.90
65692;DHT22;52411;52.716;6.696;2023-06-24T08:52:13;24.30;99.90
65692;DHT22;52411;52.716;6.696;2023-06-24T08:54:40;24.30;99.90
65692;DHT22;52411;52.716;6.696;2023-06-24T08:57:06;24.40;99.90
65692;DHT22;52411;52.716;6.696;2023-06-24T08:59:34;24.40;99.90
65692;DHT22;52411;52.716;6.696;2023-06-24T09:02:00;24.50;99.90
65692;DHT22;52411;52.716;6.696;2023-06-24T09:04:26;24.50;99.60
65692;DHT22;52411;52.716;6.696;2023-06-24T09:06:51;24.50;99.70
65692;DHT22;52411;52.716;6.696;2023-06-24T09:09:18;24.70;99.70
65692;DHT22;52411;52.716;6.696;2023-06-24T09:11:51;24.70;99.40
65692;DHT22;52411;52.716;6.696;2023-06-24T09:14:17;24.60;98.70
65692;DHT22;52411;52.716;6.696;2023-06-24T09:16:54;24.50;99.00
65692;DHT22;52411;52.716;6.696;2023-06-24T09:19:21;24.50;99.00
65692;DHT22;52411;52.716;6.696;2023-06-24T09:21:46;24.60;99.40
65692;DHT22;52411;52.716;6.696;2023-06-24T09:24:12;24.60;98.70
65692;DHT22;52411;52.716;6.696;2023-06-24T09:26:38;24.80;98.60
65692;DHT22;52411;52.716;6.696;2023-06-24T09:29:04;24.80;97.50
65692;DHT22;52411;52.716;6.696;2023-06-24T09:31:29;24.80;97.50
65692;DHT22;52411;52.716;6.696;2023-06-24T09:33:58;25.00;97.90
65692;DHT22;52411;52.716;6.696;2023-06-24T09:36:24;25.00;98.20
65692;DHT22;52411;52.716;6.696;2023-06-24T09:38:49;25.10;98.30
65692;DHT22;52411;52.716;6.696;2023-06-24T09:41:15;25.20;98.10
65692;DHT22;52411;52.716;6.696;2023-06-24T09:43:42;25.20;98.00
65692;DHT22;52411;52.716;6.696;2023-06-24T09:46:09;25.10;97.50
65692;DHT22;52411;52.716;6.696;2023-06-24T09:48:35;25.20;97.20
65692;DHT22;52411;52.716;6.696;2023-06-24T09:51:03;25.20;95.80
65692;DHT22;52411;52.716;6.696;2023-06-24T09:53:33;25.30;96.00
65692;DHT22;52411;52.716;6.696;2023-06-24T09:56:02;25.30;95.20
65692;DHT22;52411;52.716;6.696;2023-06-24T09:58:32;25.30;95.70
65692;DHT22;52411;52.716;6.696;2023-06-24T10:01:02;25.50;95.30
65692;DHT22;52411;52.716;6.696;2023-06-24T10:03:29;25.50;96.00
65692;DHT22;52411;52.716;6.696;2023-06-24T10:05:57;25.60;95.80
65692;DHT22;52411;52.716;6.696;2023-06-24T10:08:23;25.70;96.20
65692;DHT22;52411;52.716;6.696;2023-06-24T10:10:49;25.60;94.70
65692;DHT22;52411;52.716;6.696;2023-06-24T10:13:15;25.60;94.40
65692;DHT22;52411;52.716;6.696;2023-06-24T10:15:40;25.60;94.30
65692;DHT22;52411;52.716;6.696;2023-06-24T10:18:32;25.70;93.50
65692;DHT22;52411;52.716;6.696;2023-06-24T10:20:59;25.80;91.60
65692;DHT22;52411;52.716;6.696;2023-06-24T10:26:10;26.00;91.10
65692;DHT22;52411;52.716;6.696;2023-06-24T10:34:33;26.10;90.90
65692;DHT22;52411;52.716;6.696;2023-06-24T10:45:13;26.30;90.40
65692;DHT22;52411;52.716;6.696;2023-06-24T10:47:50;26.30;91.80
65692;DHT22;52411;52.716;6.696;2023-06-24T10:50:21;26.40;91.60
65692;DHT22;52411;52.716;6.696;2023-06-24T10:52:50;26.40;91.20
65692;DHT22;52411;52.716;6.696;2023-06-24T10:55:22;26.50;91.70
65692;DHT22;52411;52.716;6.696;2023-06-24T10:57:48;26.60;91.80
65692;DHT22;52411;52.716;6.696;2023-06-24T11:00:14;26.60;91.60
65692;DHT22;52411;52.716;6.696;2023-06-24T11:02:41;26.60;91.40
65692;DHT22;52411;52.716;6.696;2023-06-24T11:05:07;26.60;91.20
65692;DHT22;52411;52.716;6.696;2023-06-24T11:07:34;26.70;91.40
65692;DHT22;52411;52.716;6.696;2023-06-24T11:10:07;26.80;91.80
65692;DHT22;52411;52.716;6.696;2023-06-24T11:12:34;26.90;90.80
65692;DHT22;52411;52.716;6.696;2023-06-24T11:15:05;26.90;90.60
65692;DHT22;52411;52.716;6.696;2023-06-24T11:17:32;27.00;90.90
65692;DHT22;52411;52.716;6.696;2023-06-24T11:19:58;27.10;87.30
65692;DHT22;52411;52.716;6.696;2023-06-24T11:22:24;27.20;91.50
65692;DHT22;52411;52.716;6.696;2023-06-24T11:24:51;27.40;90.50
65692;DHT22;52411;52.716;6.696;2023-06-24T11:27:23;27.60;90.30
65692;DHT22;52411;52.716;6.696;2023-06-24T11:29:51;27.60;90.10
65692;DHT22;52411;52.716;6.696;2023-06-24T11:32:17;27.80;89.50
65692;DHT22;52411;52.716;6.696;2023-06-24T11:34:42;28.00;89.00
65692;DHT22;52411;52.716;6.696;2023-06-24T11:37:10;28.00;89.00
65692;DHT22;52411;52.716;6.696;2023-06-24T11:39:36;28.10;87.80
65692;DHT22;52411;52.716;6.696;2023-06-24T11:42:01;27.90;86.90
65692;DHT22;52411;52.716;6.696;2023-06-24T11:44:27;28.00;87.50
65692;DHT22;52411;52.716;6.696;2023-06-24T11:46:52;28.20;88.10
65692;DHT22;52411;52.716;6.696;2023-06-24T11:49:19;28.20;86.60
65692;DHT22;52411;52.716;6.696;2023-06-24T11:51:49;28.40;84.80
65692;DHT22;52411;52.716;6.696;2023-06-24T11:54:17;28.20;83.60
65692;DHT22;52411;52.716;6.696;2023-06-24T11:56:44;28.10;84.70
65692;DHT22;52411;52.716;6.696;2023-06-24T11:59:21;27.80;84.70
65692;DHT22;52411;52.716;6.696;2023-06-24T12:01:58;28.10;85.60
65692;DHT22;52411;52.716;6.696;2023-06-24T12:04:29;28.40;82.40
65692;DHT22;52411;52.716;6.696;2023-06-24T12:06:55;28.50;83.40
65692;DHT22;52411;52.716;6.696;2023-06-24T12:09:20;29.00;85.60
65692;DHT22;52411;52.716;6.696;2023-06-24T12:11:46;29.30;82.40
65692;DHT22;52411;52.716;6.696;2023-06-24T12:14:12;29.40;83.40
65692;DHT22;52411;52.716;6.696;2023-06-24T12:16:38;29.30;81.40
65692;DHT22;52411;52.716;6.696;2023-06-24T12:19:05;29.20;80.60
65692;DHT22;52411;52.716;6.696;2023-06-24T12:21:31;29.20;81.30
65692;DHT22;52411;52.716;6.696;2023-06-24T12:23:57;29.30;79.50
65692;DHT22;52411;52.716;6.696;2023-06-24T12:26:22;29.20;78.70
65692;DHT22;52411;52.716;6.696;2023-06-24T12:28:48;29.00;78.80
65692;DHT22;52411;52.716;6.696;2023-06-24T12:31:14;28.70;79.60
65692;DHT22;52411;52.716;6.696;2023-06-24T12:33:39;28.50;79.90
65692;DHT22;52411;52.716;6.696;2023-06-24T12:36:05;28.30;79.60
65692;DHT22;52411;52.716;6.696;2023-06-24T12:38:30;28.00;80.50
65692;DHT22;52411;52.716;6.696;2023-06-24T12:40:57;27.90;80.70
65692;DHT22;52411;52.716;6.696;2023-06-24T12:43:23;28.10;80.40
65692;DHT22;52411;52.716;6.696;2023-06-24T12:45:49;28.40;79.10
65692;DHT22;52411;52.716;6.696;2023-06-24T12:48:16;28.60;78.20
65692;DHT22;52411;52.716;6.696;2023-06-24T12:50:42;28.90;76.60
65692;DHT22;52411;52.716;6.696;2023-06-24T12:53:08;29.20;77.90
65692;DHT22;52411;52.716;6.696;2023-06-24T12:55:36;29.40;77.40
65692;DHT22;52411;52.716;6.696;2023-06-24T12:58:02;29.40;75.70
65692;DHT22;52411;52.716;6.696;2023-06-24T13:00:27;29.50;75.00
65692;DHT22;52411;52.716;6.696;2023-06-24T13:02:53;29.80;76.70
65692;DHT22;52411;52.716;6.696;2023-06-24T13:05:19;30.10;75.60
65692;DHT22;52411;52.716;6.696;2023-06-24T13:07:44;30.50;75.70
65692;DHT22;52411;52.716;6.696;2023-06-24T13:10:10;30.90;76.10
65692;DHT22;52411;52.716;6.696;2023-06-24T13:12:36;30.50;74.80
65692;DHT22;52411;52.716;6.696;2023-06-24T13:15:04;30.10;74.90
65692;DHT22;52411;52.716;6.696;2023-06-24T13:17:30;30.20;74.00
65692;DHT22;52411;52.716;6.696;2023-06-24T13:19:56;30.20;74.50
65692;DHT22;52411;52.716;6.696;2023-06-24T13:22:22;30.10;73.70
65692;DHT22;52411;52.716;6.696;2023-06-24T13:24:47;30.20;73.50
65692;DHT22;52411;52.716;6.696;2023-06-24T13:27:13;29.90;72.60
65692;DHT22;52411;52.716;6.696;2023-06-24T13:29:39;29.90;73.10
65692;DHT22;52411;52.716;6.696;2023-06-24T13:32:05;30.20;72.50
65692;DHT22;52411;52.716;6.696;2023-06-24T13:34:30;30.80;72.20
65692;DHT22;52411;52.716;6.696;2023-06-24T13:36:56;30.80;70.90
65692;DHT22;52411;52.716;6.696;2023-06-24T13:39:22;30.70;70.50
65692;DHT22;52411;52.716;6.696;2023-06-24T13:41:49;30.30;70.30
65692;DHT22;52411;52.716;6.696;2023-06-24T13:44:15;30.20;70.90
65692;DHT22;52411;52.716;6.696;2023-06-24T13:46:41;29.90;71.40
65692;DHT22;52411;52.716;6.696;2023-06-24T13:49:07;30.40;70.70
65692;DHT22;52411;52.716;6.696;2023-06-24T13:51:33;31.00;71.20
65692;DHT22;52411;52.716;6.696;2023-06-24T13:53:59;30.80;70.00
65692;DHT22;52411;52.716;6.696;2023-06-24T13:56:25;30.40;70.40
65692;DHT22;52411;52.716;6.696;2023-06-24T13:58:52;29.80;70.00
65692;DHT22;52411;52.716;6.696;2023-06-24T14:01:18;29.30;71.00
65692;DHT22;52411;52.716;6.696;2023-06-24T14:03:44;29.10;71.60
65692;DHT22;52411;52.716;6.696;2023-06-24T14:06:11;28.80;72.10
65692;DHT22;52411;52.716;6.696;2023-06-24T14:08:36;28.80;73.10
65692;DHT22;52411;52.716;6.696;2023-06-24T14:11:08;28.90;73.20
65692;DHT22;52411;52.716;6.696;2023-06-24T14:13:40;28.80;73.30
65692;DHT22;52411;52.716;6.696;2023-06-24T14:16:06;28.70;72.70
65692;DHT22;52411;52.716;6.696;2023-06-24T14:18:32;28.50;72.80
65692;DHT22;52411;52.716;6.696;2023-06-24T14:20:58;28.60;73.40
65692;DHT22;52411;52.716;6.696;2023-06-24T14:23:24;28.70;73.70
65692;DHT22;52411;52.716;6.696;2023-06-24T14:25:53;29.00;72.90
65692;DHT22;52411;52.716;6.696;2023-06-24T14:28:20;29.00;73.20
65692;DHT22;52411;52.716;6.696;2023-06-24T14:30:45;29.00;73.60
65692;DHT22;52411;52.716;6.696;2023-06-24T14:33:12;28.80;73.10
65692;DHT22;52411;52.716;6.696;2023-06-24T14:35:38;28.70;73.20
65692;DHT22;52411;52.716;6.696;2023-06-24T14:38:04;28.70;73.60
65692;DHT22;52411;52.716;6.696;2023-06-24T14:40:31;28.70;73.50
65692;DHT22;52411;52.716;6.696;2023-06-24T14:42:56;28.70;74.40
65692;DHT22;52411;52.716;6.696;2023-06-24T14:45:22;28.70;75.00
65692;DHT22;52411;52.716;6.696;2023-06-24T14:47:47;28.70;75.50
65692;DHT22;52411;52.716;6.696;2023-06-24T14:50:13;28.60;75.10
65692;DHT22;52411;52.716;6.696;2023-06-24T14:52:39;28.60;74.60
65692;DHT22;52411;52.716;6.696;2023-06-24T14:55:05;28.50;75.30
65692;DHT22;52411;52.716;6.696;2023-06-24T14:57:31;28.60;76.80
65692;DHT22;52411;52.716;6.696;2023-06-24T14:59:56;28.70;76.40
65692;DHT22;52411;52.716;6.696;2023-06-24T15:02:22;28.70;75.40
65692;DHT22;52411;52.716;6.696;2023-06-24T15:04:48;28.70;75.00
65692;DHT22;52411;52.716;6.696;2023-06-24T15:07:13;28.70;75.60
65692;DHT22;52411;52.716;6.696;2023-06-24T15:09:39;28.80;76.20
65692;DHT22;52411;52.716;6.696;2023-06-24T15:12:05;28.90;75.00
65692;DHT22;52411;52.716;6.696;2023-06-24T15:14:31;28.90;74.30
65692;DHT22;52411;52.716;6.696;2023-06-24T15:16:56;29.00;75.00
65692;DHT22;52411;52.716;6.696;2023-06-24T15:19:24;29.00;74.30
65692;DHT22;52411;52.716;6.696;2023-06-24T15:21:49;29.00;73.60
65692;DHT22;52411;52.716;6.696;2023-06-24T15:24:15;29.10;73.80
65692;DHT22;52411;52.716;6.696;2023-06-24T15:26:40;29.20;73.90
65692;DHT22;52411;52.716;6.696;2023-06-24T15:29:06;29.30;75.40
65692;DHT22;52411;52.716;6.696;2023-06-24T15:31:32;29.10;74.50
65692;DHT22;52411;52.716;6.696;2023-06-24T15:33:57;29.20;73.80
65692;DHT22;52411;52.716;6.696;2023-06-24T15:36:23;29.30;74.20
65692;DHT22;52411;52.716;6.696;2023-06-24T15:38:52;29.40;74.60
65692;DHT22;52411;52.716;6.696;2023-06-24T15:41:18;29.40;75.20
65692;DHT22;52411;52.716;6.696;2023-06-24T15:43:44;29.30;75.40
65692;DHT22;52411;52.716;6.696;2023-06-24T15:46:10;29.20;75.20
65692;DHT22;52411;52.716;6.696;2023-06-24T15:48:35;29.10;75.40
65692;DHT22;52411;52.716;6.696;2023-06-24T15:51:02;29.20;74.40
65692;DHT22;52411;52.716;6.696;2023-06-24T15:53:28;29.30;73.70
65692;DHT22;52411;52.716;6.696;2023-06-24T15:55:54;29.40;72.80
65692;DHT22;52411;52.716;6.696;2023-06-24T15:58:19;29.60;72.70